sensor_id;sensor_type;location;lat;lon;timestamp;P1;durP1;ratioP1;P2;durP2;ratioP2
6007;SDS011;3032;49.484;11.112;2023-07-28T00:02:18;13.53;;;10.80;;
6007;SDS011;3032;49.484;11.112;2023-07-28T00:04:43;14.77;;;11.90;;
6007;SDS011;3032;49.484;11.112;2023-07-28T00:07:09;10.83;;;8.70;;
6007;SDS011;3032;49.484;11.112;2023-07-28T00:09:35;13.10;;;8.77;;
6007;SDS011;3032;49.484;11.112;2023-07-28T00:12:00;13.07;;;9.70;;
6007;SDS011;3032;49.484;11.112;2023-07-28T00:14:26;12.97;;;9.83;;
6007;SDS011;3032;49.484;11.112;2023-07-28T00:16:52;10.07;;;8.07;;
6007;SDS011;3032;49.484;11.112;2023-07-28T00:19:19;10.10;;;9.05;;
6007;SDS011;3032;49.484;11.112;2023-07-28T00:21:46;9.30;;;8.30;;
6007;SDS011;3032;49.484;11.112;2023-07-28T00:24:15;10.80;;;9.27;;
6007;SDS011;3032;49.484;11.112;2023-07-28T00:26:41;11.25;;;8.45;;
6007;SDS011;3032;49.484;11.112;2023-07-28T00:29:07;5.97;;;5.47;;
6007;SDS011;3032;49.484;11.112;2023-07-28T00:31:33;9.57;;;7.07;;
6007;SDS011;3032;49.484;11.112;2023-07-28T00:33:59;7.95;;;7.15;;
6007;SDS011;3032;49.484;11.112;2023-07-28T00:36:25;13.27;;;9.55;;
6007;SDS011;3032;49.484;11.112;2023-07-28T00:38:50;10.67;;;7.90;;
6007;SDS011;3032;49.484;11.112;2023-07-28T00:41:16;9.70;;;7.80;;
6007;SDS011;3032;49.484;11.112;2023-07-28T00:43:41;13.93;;;10.73;;
6007;SDS011;3032;49.484;11.112;2023-07-28T00:46:07;14.47;;;10.17;;
6007;SDS011;3032;49.484;11.112;2023-07-28T00:48:34;15.18;;;10.15;;
6007;SDS011;3032;49.484;11.112;2023-07-28T00:51:00;9.53;;;8.57;;
6007;SDS011;3032;49.484;11.112;2023-07-28T00:53:25;11.80;;;8.90;;
6007;SDS011;3032;49.484;11.112;2023-07-28T00:55:52;15.77;;;10.63;;
6007;SDS011;3032;49.484;11.112;2023-07-28T00:58:18;19.13;;;11.90;;
6007;SDS011;3032;49.484;11.112;2023-07-28T01:00:43;13.03;;;10.33;;
6007;SDS011;3032;49.484;11.112;2023-07-28T01:03:09;11.10;;;9.77;;
6007;SDS011;3032;49.484;11.112;2023-07-28T01:05:59;12.10;;;9.50;;
6007;SDS011;3032;49.484;11.112;2023-07-28T01:11:15;12.07;;;9.32;;
6007;SDS011;3032;49.484;11.112;2023-07-28T01:13:41;20.53;;;12.03;;
6007;SDS011;3032;49.484;11.112;2023-07-28T01:16:06;19.37;;;11.37;;
6007;SDS011;3032;49.484;11.112;2023-07-28T01:18:33;23.70;;;12.82;;
6007;SDS011;3032;49.484;11.112;2023-07-28T01:20:59;15.57;;;10.63;;
6007;SDS011;3032;49.484;11.112;2023-07-28T01:26:11;19.50;;;11.85;;
6007;SDS011;3032;49.484;11.112;2023-07-28T01:28:40;11.68;;;8.93;;
6007;SDS011;3032;49.484;11.112;2023-07-28T01:31:08;18.63;;;11.50;;
6007;SDS011;3032;49.484;11.112;2023-07-28T01:33:34;29.85;;;13.93;;
6007;SDS011;3032;49.484;11.112;2023-07-28T01:36:00;10.25;;;8.63;;
6007;SDS011;3032;49.484;11.112;2023-07-28T01:38:26;16.90;;;11.13;;
6007;SDS011;3032;49.484;11.112;2023-07-28T01:40:52;10.68;;;7.78;;
6007;SDS011;3032;49.484;11.112;2023-07-28T01:43:18;8.87;;;7.90;;
6007;SDS011;3032;49.484;11.112;2023-07-28T01:45:44;8.00;;;6.80;;
6007;SDS011;3032;49.484;11.112;2023-07-28T01:48:09;20.93;;;11.80;;
6007;SDS011;3032;49.484;11.112;2023-07-28T01:50:35;10.47;;;7.77;;
6007;SDS011;3032;49.484;11.112;2023-07-28T01:53:01;16.73;;;11.20;;
6007;SDS011;3032;49.484;11.112;2023-07-28T01:55:27;9.63;;;8.63;;
6007;SDS011;3032;49.484;11.112;2023-07-28T01:57:57;12.90;;;10.07;;
6007;SDS011;3032;49.484;11.112;2023-07-28T02:00:24;11.13;;;8.90;;
6007;SDS011;3032;49.484;11.112;2023-07-28T02:02:49;15.90;;;10.37;;
6007;SDS011;3032;49.484;11.112;2023-07-28T02:05:15;13.15;;;10.98;;
6007;SDS011;3032;49.484;11.112;2023-07-28T02:07:41;12.53;;;10.20;;
6007;SDS011;3032;49.484;11.112;2023-07-28T02:10:07;12.40;;;10.50;;
6007;SDS011;3032;49.484;11.112;2023-07-28T02:12:33;15.63;;;10.47;;
6007;SDS011;3032;49.484;11.112;2023-07-28T02:14:59;23.90;;;12.87;;
6007;SDS011;3032;49.484;11.112;2023-07-28T02:17:24;22.35;;;14.73;;
6007;SDS011;3032;49.484;11.112;2023-07-28T02:19:50;19.10;;;12.90;;
6007;SDS011;3032;49.484;11.112;2023-07-28T02:22:16;23.37;;;13.07;;
6007;SDS011;3032;49.484;11.112;2023-07-28T02:24:41;21.33;;;12.93;;
6007;SDS011;3032;49.484;11.112;2023-07-28T02:27:07;20.40;;;13.20;;
6007;SDS011;3032;49.484;11.112;2023-07-28T02:29:32;29.20;;;15.40;;
6007;SDS011;3032;49.484;11.112;2023-07-28T02:31:58;28.70;;;14.43;;
6007;SDS011;3032;49.484;11.112;2023-07-28T02:34:23;21.60;;;11.37;;
6007;SDS011;3032;49.484;11.112;2023-07-28T02:36:49;18.30;;;11.10;;
6007;SDS011;3032;49.484;11.112;2023-07-28T02:39:15;24.07;;;13.73;;
6007;SDS011;3032;49.484;11.112;2023-07-28T02:41:40;21.60;;;12.63;;
6007;SDS011;3032;49.484;11.112;2023-07-28T02:44:06;27.23;;;14.37;;
6007;SDS011;3032;49.484;11.112;2023-07-28T02:46:31;37.17;;;15.30;;
6007;SDS011;3032;49.484;11.112;2023-07-28T02:48:57;17.37;;;10.90;;
6007;SDS011;3032;49.484;11.112;2023-07-28T02:51:22;35.10;;;16.20;;
6007;SDS011;3032;49.484;11.112;2023-07-28T02:53:48;13.13;;;10.17;;
6007;SDS011;3032;49.484;11.112;2023-07-28T02:56:13;24.63;;;13.77;;
6007;SDS011;3032;49.484;11.112;2023-07-28T02:58:39;27.87;;;14.40;;
6007;SDS011;3032;49.484;11.112;2023-07-28T03:01:04;20.97;;;13.00;;
6007;SDS011;3032;49.484;11.112;2023-07-28T03:03:30;14.73;;;9.70;;
6007;SDS011;3032;49.484;11.112;2023-07-28T03:05:55;33.70;;;16.13;;
6007;SDS011;3032;49.484;11.112;2023-07-28T03:08:21;27.60;;;14.13;;
6007;SDS011;3032;49.484;11.112;2023-07-28T03:10:47;15.90;;;11.50;;
6007;SDS011;3032;49.484;11.112;2023-07-28T03:13:12;28.53;;;13.40;;
6007;SDS011;3032;49.484;11.112;2023-07-28T03:15:38;16.83;;;11.53;;
6007;SDS011;3032;49.484;11.112;2023-07-28T03:18:03;37.50;;;16.33;;
6007;SDS011;3032;49.484;11.112;2023-07-28T03:20:29;13.13;;;10.73;;
6007;SDS011;3032;49.484;11.112;2023-07-28T03:22:55;22.77;;;14.50;;
6007;SDS011;3032;49.484;11.112;2023-07-28T03:25:20;40.83;;;17.03;;
6007;SDS011;3032;49.484;11.112;2023-07-28T03:27:46;22.70;;;13.70;;
6007;SDS011;3032;49.484;11.112;2023-07-28T03:30:12;23.87;;;14.50;;
6007;SDS011;3032;49.484;11.112;2023-07-28T03:32:39;21.05;;;14.30;;
6007;SDS011;3032;49.484;11.112;2023-07-28T03:35:04;33.30;;;18.53;;
6007;SDS011;3032;49.484;11.112;2023-07-28T03:37:31;29.90;;;16.85;;
6007;SDS011;3032;49.484;11.112;2023-07-28T03:39:57;28.95;;;14.88;;
6007;SDS011;3032;49.484;11.112;2023-07-28T03:42:23;38.27;;;18.10;;
6007;SDS011;3032;49.484;11.112;2023-07-28T03:44:48;27.30;;;15.10;;
6007;SDS011;3032;49.484;11.112;2023-07-28T03:47:14;46.60;;;19.00;;
6007;SDS011;3032;49.484;11.112;2023-07-28T03:49:40;28.63;;;16.50;;
6007;SDS011;3032;49.484;11.112;2023-07-28T03:52:05;21.50;;;13.93;;
6007;SDS011;3032;49.484;11.112;2023-07-28T03:54:31;9.07;;;7.60;;
6007;SDS011;3032;49.484;11.112;2023-07-28T03:56:56;35.67;;;19.57;;
6007;SDS011;3032;49.484;11.112;2023-07-28T03:59:22;13.80;;;10.03;;
6007;SDS011;3032;49.484;11.112;2023-07-28T04:01:47;17.50;;;12.80;;
6007;SDS011;3032;49.484;11.112;2023-07-28T04:04:13;22.47;;;14.50;;
6007;SDS011;3032;49.484;11.112;2023-07-28T04:06:48;13.33;;;11.43;;
6007;SDS011;3032;49.484;11.112;2023-07-28T04:09:15;25.92;;;15.13;;
6007;SDS011;3032;49.484;11.112;2023-07-28T04:11:42;17.30;;;12.95;;
6007;SDS011;3032;49.484;11.112;2023-07-28T04:14:08;33.28;;;18.20;;
6007;SDS011;3032;49.484;11.112;2023-07-28T04:16:34;28.83;;;16.70;;
6007;SDS011;3032;49.484;11.112;2023-07-28T04:18:59;27.37;;;14.10;;
6007;SDS011;3032;49.484;11.112;2023-07-28T04:21:25;9.97;;;8.90;;
6007;SDS011;3032;49.484;11.112;2023-07-28T04:23:51;12.83;;;10.23;;
6007;SDS011;3032;49.484;11.112;2023-07-28T04:26:17;18.70;;;12.67;;
6007;SDS011;3032;49.484;11.112;2023-07-28T04:28:43;19.63;;;11.77;;
6007;SDS011;3032;49.484;11.112;2023-07-28T04:31:08;18.02;;;13.30;;
6007;SDS011;3032;49.484;11.112;2023-07-28T04:33:35;18.38;;;12.52;;
6007;SDS011;3032;49.484;11.112;2023-07-28T04:36:04;12.50;;;10.53;;
6007;SDS011;3032;49.484;11.112;2023-07-28T04:38:29;25.02;;;16.45;;
6007;SDS011;3032;49.484;11.112;2023-07-28T04:40:55;32.93;;;19.23;;
6007;SDS011;3032;49.484;11.112;2023-07-28T04:43:20;14.50;;;11.07;;
6007;SDS011;3032;49.484;11.112;2023-07-28T04:45:46;20.07;;;11.40;;
6007;SDS011;3032;49.484;11.112;2023-07-28T04:48:11;12.97;;;11.30;;
6007;SDS011;3032;49.484;11.112;2023-07-28T04:50:37;12.50;;;11.17;;
6007;SDS011;3032;49.484;11.112;2023-07-28T04:53:03;11.33;;;9.77;;
6007;SDS011;3032;49.484;11.112;2023-07-28T04:55:28;23.13;;;13.33;;
6007;SDS011;3032;49.484;11.112;2023-07-28T04:57:55;13.57;;;11.32;;
6007;SDS011;3032;49.484;11.112;2023-07-28T05:00:20;13.52;;;11.15;;
6007;SDS011;3032;49.484;11.112;2023-07-28T05:02:46;13.00;;;11.38;;
6007;SDS011;3032;49.484;11.112;2023-07-28T05:05:12;14.00;;;11.27;;
6007;SDS011;3032;49.484;11.112;2023-07-28T05:07:37;19.47;;;14.73;;
6007;SDS011;3032;49.484;11.112;2023-07-28T05:10:03;29.93;;;17.87;;
6007;SDS011;3032;49.484;11.112;2023-07-28T05:12:29;12.73;;;10.77;;
6007;SDS011;3032;49.484;11.112;2023-07-28T05:14:54;12.73;;;11.37;;
6007;SDS011;3032;49.484;11.112;2023-07-28T05:17:20;10.73;;;9.60;;
6007;SDS011;3032;49.484;11.112;2023-07-28T05:19:45;11.33;;;10.13;;
6007;SDS011;3032;49.484;11.112;2023-07-28T05:22:11;12.27;;;10.53;;
6007;SDS011;3032;49.484;11.112;2023-07-28T05:24:36;21.13;;;12.60;;
6007;SDS011;3032;49.484;11.112;2023-07-28T05:27:02;18.23;;;12.87;;
6007;SDS011;3032;49.484;11.112;2023-07-28T05:29:27;14.33;;;11.37;;
6007;SDS011;3032;49.484;11.112;2023-07-28T05:31:53;14.37;;;11.70;;
6007;SDS011;3032;49.484;11.112;2023-07-28T05:34:19;18.97;;;13.10;;
6007;SDS011;3032;49.484;11.112;2023-07-28T05:36:44;16.80;;;13.30;;
6007;SDS011;3032;49.484;11.112;2023-07-28T05:39:10;9.53;;;8.60;;
6007;SDS011;3032;49.484;11.112;2023-07-28T05:41:36;15.60;;;11.07;;
6007;SDS011;3032;49.484;11.112;2023-07-28T05:44:02;10.65;;;9.07;;
6007;SDS011;3032;49.484;11.112;2023-07-28T05:46:28;19.38;;;12.38;;
6007;SDS011;3032;49.484;11.112;2023-07-28T05:48:54;12.37;;;10.10;;
6007;SDS011;3032;49.484;11.112;2023-07-28T05:51:21;12.23;;;10.48;;
6007;SDS011;3032;49.484;11.112;2023-07-28T05:53:47;11.18;;;9.38;;
6007;SDS011;3032;49.484;11.112;2023-07-28T05:56:12;9.87;;;8.93;;
6007;SDS011;3032;49.484;11.112;2023-07-28T05:58:38;10.40;;;9.40;;
6007;SDS011;3032;49.484;11.112;2023-07-28T06:01:03;15.60;;;11.20;;
6007;SDS011;3032;49.484;11.112;2023-07-28T06:03:29;13.03;;;11.20;;
6007;SDS011;3032;49.484;11.112;2023-07-28T06:05:55;15.13;;;11.65;;
6007;SDS011;3032;49.484;11.112;2023-07-28T06:08:21;16.55;;;13.07;;
6007;SDS011;3032;49.484;11.112;2023-07-28T06:10:47;11.60;;;9.77;;
6007;SDS011;3032;49.484;11.112;2023-07-28T06:13:13;12.10;;;9.67;;
6007;SDS011;3032;49.484;11.112;2023-07-28T06:15:39;10.00;;;8.70;;
6007;SDS011;3032;49.484;11.112;2023-07-28T06:18:05;10.10;;;8.38;;
6007;SDS011;3032;49.484;11.112;2023-07-28T06:20:30;11.70;;;8.97;;
6007;SDS011;3032;49.484;11.112;2023-07-28T06:22:56;8.93;;;8.07;;
6007;SDS011;3032;49.484;11.112;2023-07-28T06:25:22;13.50;;;8.97;;
6007;SDS011;3032;49.484;11.112;2023-07-28T06:27:47;9.47;;;8.33;;
6007;SDS011;3032;49.484;11.112;2023-07-28T06:30:13;10.70;;;8.50;;
6007;SDS011;3032;49.484;11.112;2023-07-28T06:32:39;8.83;;;7.40;;
6007;SDS011;3032;49.484;11.112;2023-07-28T06:35:04;11.23;;;8.83;;
6007;SDS011;3032;49.484;11.112;2023-07-28T06:37:32;9.10;;;8.30;;
6007;SDS011;3032;49.484;11.112;2023-07-28T06:39:58;8.93;;;7.90;;
6007;SDS011;3032;49.484;11.112;2023-07-28T06:42:24;10.70;;;7.83;;
6007;SDS011;3032;49.484;11.112;2023-07-28T06:44:50;8.75;;;7.85;;
6007;SDS011;3032;49.484;11.112;2023-07-28T06:47:16;10.75;;;8.93;;
6007;SDS011;3032;49.484;11.112;2023-07-28T06:49:42;13.63;;;11.35;;
6007;SDS011;3032;49.484;11.112;2023-07-28T06:52:08;9.43;;;7.43;;
6007;SDS011;3032;49.484;11.112;2023-07-28T06:54:34;12.37;;;8.73;;
6007;SDS011;3032;49.484;11.112;2023-07-28T06:56:59;9.38;;;8.30;;
6007;SDS011;3032;49.484;11.112;2023-07-28T06:59:25;9.97;;;8.00;;
6007;SDS011;3032;49.484;11.112;2023-07-28T07:01:50;11.93;;;9.90;;
6007;SDS011;3032;49.484;11.112;2023-07-28T07:04:16;16.20;;;12.03;;
6007;SDS011;3032;49.484;11.112;2023-07-28T07:06:42;16.20;;;9.10;;
6007;SDS011;3032;49.484;11.112;2023-07-28T07:09:07;15.37;;;11.73;;
6007;SDS011;3032;49.484;11.112;2023-07-28T07:11:33;14.30;;;11.03;;
6007;SDS011;3032;49.484;11.112;2023-07-28T07:13:59;11.63;;;10.33;;
6007;SDS011;3032;49.484;11.112;2023-07-28T07:16:24;8.90;;;7.67;;
6007;SDS011;3032;49.484;11.112;2023-07-28T07:18:53;7.53;;;6.67;;
6007;SDS011;3032;49.484;11.112;2023-07-28T07:21:18;6.63;;;6.05;;
6007;SDS011;3032;49.484;11.112;2023-07-28T07:23:44;8.47;;;6.80;;
6007;SDS011;3032;49.484;11.112;2023-07-28T07:26:09;8.57;;;7.30;;
6007;SDS011;3032;49.484;11.112;2023-07-28T07:28:35;7.50;;;6.40;;
6007;SDS011;3032;49.484;11.112;2023-07-28T07:31:01;7.00;;;6.23;;
6007;SDS011;3032;49.484;11.112;2023-07-28T07:33:26;8.90;;;6.60;;
6007;SDS011;3032;49.484;11.112;2023-07-28T07:35:52;13.17;;;10.53;;
6007;SDS011;3032;49.484;11.112;2023-07-28T07:38:18;9.97;;;8.50;;
6007;SDS011;3032;49.484;11.112;2023-07-28T07:40:46;10.23;;;9.23;;
6007;SDS011;3032;49.484;11.112;2023-07-28T07:43:12;8.15;;;7.35;;
6007;SDS011;3032;49.484;11.112;2023-07-28T07:45:44;10.23;;;8.70;;
6007;SDS011;3032;49.484;11.112;2023-07-28T07:48:11;6.55;;;5.95;;
6007;SDS011;3032;49.484;11.112;2023-07-28T07:50:37;8.23;;;7.27;;
6007;SDS011;3032;49.484;11.112;2023-07-28T07:53:03;6.30;;;5.80;;
6007;SDS011;3032;49.484;11.112;2023-07-28T07:55:28;7.30;;;6.43;;
6007;SDS011;3032;49.484;11.112;2023-07-28T07:57:55;6.43;;;5.70;;
6007;SDS011;3032;49.484;11.112;2023-07-28T08:00:21;8.17;;;6.07;;
6007;SDS011;3032;49.484;11.112;2023-07-28T08:02:47;7.83;;;7.10;;
6007;SDS011;3032;49.484;11.112;2023-07-28T08:05:12;6.97;;;6.27;;
6007;SDS011;3032;49.484;11.112;2023-07-28T08:07:39;10.40;;;6.45;;
6007;SDS011;3032;49.484;11.112;2023-07-28T08:10:05;8.50;;;5.53;;
6007;SDS011;3032;49.484;11.112;2023-07-28T08:12:31;5.05;;;4.65;;
6007;SDS011;3032;49.484;11.112;2023-07-28T08:14:57;6.10;;;5.50;;
6007;SDS011;3032;49.484;11.112;2023-07-28T08:17:23;5.10;;;4.60;;
6007;SDS011;3032;49.484;11.112;2023-07-28T08:19:48;5.30;;;4.80;;
6007;SDS011;3032;49.484;11.112;2023-07-28T08:22:14;5.33;;;4.90;;
6007;SDS011;3032;49.484;11.112;2023-07-28T08:24:39;4.93;;;4.40;;
6007;SDS011;3032;49.484;11.112;2023-07-28T08:27:05;6.57;;;4.87;;
6007;SDS011;3032;49.484;11.112;2023-07-28T08:29:31;5.67;;;5.17;;
6007;SDS011;3032;49.484;11.112;2023-07-28T08:31:56;6.40;;;4.80;;
6007;SDS011;3032;49.484;11.112;2023-07-28T08:34:23;5.37;;;4.83;;
6007;SDS011;3032;49.484;11.112;2023-07-28T08:36:49;5.47;;;5.00;;
6007;SDS011;3032;49.484;11.112;2023-07-28T08:39:14;4.87;;;4.13;;
6007;SDS011;3032;49.484;11.112;2023-07-28T08:41:40;8.87;;;4.47;;
6007;SDS011;3032;49.484;11.112;2023-07-28T08:44:06;5.60;;;4.00;;
6007;SDS011;3032;49.484;11.112;2023-07-28T08:46:32;8.23;;;5.18;;
6007;SDS011;3032;49.484;11.112;2023-07-28T08:48:59;4.40;;;4.00;;
6007;SDS011;3032;49.484;11.112;2023-07-28T08:51:25;4.13;;;3.83;;
6007;SDS011;3032;49.484;11.112;2023-07-28T08:53:50;5.83;;;4.13;;
6007;SDS011;3032;49.484;11.112;2023-07-28T08:56:16;4.40;;;3.90;;
6007;SDS011;3032;49.484;11.112;2023-07-28T08:58:42;6.60;;;3.67;;
6007;SDS011;3032;49.484;11.112;2023-07-28T09:01:07;3.60;;;3.40;;
6007;SDS011;3032;49.484;11.112;2023-07-28T09:03:33;3.87;;;3.47;;
6007;SDS011;3032;49.484;11.112;2023-07-28T09:06:06;3.75;;;3.40;;
6007;SDS011;3032;49.484;11.112;2023-07-28T09:08:34;3.83;;;3.45;;
6007;SDS011;3032;49.484;11.112;2023-07-28T09:11:04;3.38;;;3.13;;
6007;SDS011;3032;49.484;11.112;2023-07-28T09:13:37;3.92;;;3.55;;
6007;SDS011;3032;49.484;11.112;2023-07-28T09:16:16;3.42;;;3.22;;
6007;SDS011;3032;49.484;11.112;2023-07-28T09:21:42;3.38;;;3.17;;
6007;SDS011;3032;49.484;11.112;2023-07-28T09:24:10;3.13;;;2.92;;
6007;SDS011;3032;49.484;11.112;2023-07-28T09:26:38;3.00;;;2.80;;
6007;SDS011;3032;49.484;11.112;2023-07-28T09:29:11;3.25;;;3.05;;
6007;SDS011;3032;49.484;11.112;2023-07-28T09:31:39;3.00;;;2.80;;
6007;SDS011;3032;49.484;11.112;2023-07-28T09:34:06;3.40;;;3.10;;
6007;SDS011;3032;49.484;11.112;2023-07-28T09:36:35;2.80;;;2.70;;
6007;SDS011;3032;49.484;11.112;2023-07-28T09:39:03;2.90;;;2.70;;
6007;SDS011;3032;49.484;11.112;2023-07-28T09:41:32;3.05;;;2.88;;
6007;SDS011;3032;49.484;11.112;2023-07-28T09:43:59;2.65;;;2.55;;
6007;SDS011;3032;49.484;11.112;2023-07-28T09:46:25;3.03;;;2.85;;
6007;SDS011;3032;49.484;11.112;2023-07-28T09:48:59;2.22;;;2.10;;
6007;SDS011;3032;49.484;11.112;2023-07-28T09:51:29;2.50;;;2.30;;
6007;SDS011;3032;49.484;11.112;2023-07-28T09:54:40;2.40;;;2.20;;
6007;SDS011;3032;49.484;11.112;2023-07-28T09:56:54;7.57;;;2.17;;
6007;SDS011;3032;49.484;11.112;2023-07-28T09:59:37;2.92;;;2.72;;
6007;SDS011;3032;49.484;11.112;2023-07-28T10:02:04;3.13;;;1.80;;
6007;SDS011;3032;49.484;11.112;2023-07-28T10:04:31;3.00;;;2.35;;
6007;SDS011;3032;49.484;11.112;2023-07-28T10:06:58;2.13;;;1.92;;
6007;SDS011;3032;49.484;11.112;2023-07-28T10:09:24;3.28;;;1.90;;
6007;SDS011;3032;49.484;11.112;2023-07-28T10:11:51;3.35;;;2.10;;
6007;SDS011;3032;49.484;11.112;2023-07-28T10:14:36;5.93;;;3.60;;
6007;SDS011;3032;49.484;11.112;2023-07-28T10:17:03;4.78;;;3.28;;
6007;SDS011;3032;49.484;11.112;2023-07-28T10:19:33;8.05;;;7.30;;
6007;SDS011;3032;49.484;11.112;2023-07-28T10:22:00;8.07;;;2.00;;
6007;SDS011;3032;49.484;11.112;2023-07-28T10:24:49;3.22;;;2.92;;
6007;SDS011;3032;49.484;11.112;2023-07-28T10:29:59;5.40;;;2.60;;
6007;SDS011;3032;49.484;11.112;2023-07-28T10:32:26;4.18;;;3.08;;
6007;SDS011;3032;49.484;11.112;2023-07-28T10:35:00;3.17;;;1.92;;
6007;SDS011;3032;49.484;11.112;2023-07-28T10:37:26;5.03;;;2.40;;
6007;SDS011;3032;49.484;11.112;2023-07-28T10:42:49;2.17;;;1.90;;
6007;SDS011;3032;49.484;11.112;2023-07-28T10:45:16;3.50;;;3.08;;
6007;SDS011;3032;49.484;11.112;2023-07-28T10:47:41;2.10;;;1.90;;
6007;SDS011;3032;49.484;11.112;2023-07-28T10:50:11;2.55;;;1.77;;
6007;SDS011;3032;49.484;11.112;2023-07-28T10:52:40;2.03;;;1.30;;
6007;SDS011;3032;49.484;11.112;2023-07-28T10:55:11;2.17;;;1.50;;
6007;SDS011;3032;49.484;11.112;2023-07-28T10:57:38;5.38;;;1.50;;
6007;SDS011;3032;49.484;11.112;2023-07-28T11:00:05;1.83;;;1.40;;
6007;SDS011;3032;49.484;11.112;2023-07-28T11:02:32;1.65;;;1.55;;
6007;SDS011;3032;49.484;11.112;2023-07-28T11:04:58;1.60;;;1.50;;
6007;SDS011;3032;49.484;11.112;2023-07-28T11:07:24;1.43;;;1.30;;
6007;SDS011;3032;49.484;11.112;2023-07-28T11:09:50;1.33;;;1.33;;
6007;SDS011;3032;49.484;11.112;2023-07-28T11:12:15;1.45;;;1.42;;
6007;SDS011;3032;49.484;11.112;2023-07-28T11:14:42;1.30;;;1.20;;
6007;SDS011;3032;49.484;11.112;2023-07-28T11:17:08;2.13;;;1.20;;
6007;SDS011;3032;49.484;11.112;2023-07-28T11:19:33;1.80;;;1.20;;
6007;SDS011;3032;49.484;11.112;2023-07-28T11:21:59;1.63;;;1.30;;
6007;SDS011;3032;49.484;11.112;2023-07-28T11:24:24;1.40;;;1.30;;
6007;SDS011;3032;49.484;11.112;2023-07-28T11:26:51;1.52;;;1.42;;
6007;SDS011;3032;49.484;11.112;2023-07-28T11:29:18;1.30;;;1.20;;
6007;SDS011;3032;49.484;11.112;2023-07-28T11:31:46;1.17;;;1.17;;
6007;SDS011;3032;49.484;11.112;2023-07-28T11:34:13;1.05;;;1.00;;
6007;SDS011;3032;49.484;11.112;2023-07-28T11:36:40;1.60;;;1.50;;
6007;SDS011;3032;49.484;11.112;2023-07-28T11:39:06;3.53;;;1.23;;
6007;SDS011;3032;49.484;11.112;2023-07-28T11:41:32;3.80;;;1.40;;
6007;SDS011;3032;49.484;11.112;2023-07-28T11:43:59;1.00;;;1.00;;
6007;SDS011;3032;49.484;11.112;2023-07-28T11:46:58;1.20;;;1.10;;
6007;SDS011;3032;49.484;11.112;2023-07-28T11:49:20;3.78;;;1.40;;
6007;SDS011;3032;49.484;11.112;2023-07-28T11:51:52;1.40;;;1.30;;
6007;SDS011;3032;49.484;11.112;2023-07-28T11:54:23;1.30;;;1.00;;
6007;SDS011;3032;49.484;11.112;2023-07-28T11:56:50;1.58;;;1.48;;
6007;SDS011;3032;49.484;11.112;2023-07-28T11:59:19;1.20;;;1.20;;
6007;SDS011;3032;49.484;11.112;2023-07-28T12:04:27;1.23;;;1.20;;
6007;SDS011;3032;49.484;11.112;2023-07-28T12:12:17;1.30;;;1.20;;
6007;SDS011;3032;49.484;11.112;2023-07-28T12:14:44;1.20;;;1.15;;
6007;SDS011;3032;49.484;11.112;2023-07-28T12:17:13;1.20;;;1.20;;
6007;SDS011;3032;49.484;11.112;2023-07-28T12:19:56;1.67;;;1.10;;
6007;SDS011;3032;49.484;11.112;2023-07-28T12:22:42;1.05;;;1.05;;
6007;SDS011;3032;49.484;11.112;2023-07-28T12:25:09;1.05;;;1.05;;
6007;SDS011;3032;49.484;11.112;2023-07-28T12:27:36;1.10;;;1.00;;
6007;SDS011;3032;49.484;11.112;2023-07-28T12:30:02;0.90;;;0.90;;
6007;SDS011;3032;49.484;11.112;2023-07-28T12:32:29;1.02;;;1.02;;
6007;SDS011;3032;49.484;11.112;2023-07-28T12:34:54;1.20;;;1.20;;
6007;SDS011;3032;49.484;11.112;2023-07-28T12:37:20;1.20;;;1.20;;
6007;SDS011;3032;49.484;11.112;2023-07-28T12:39:46;1.98;;;1.70;;
6007;SDS011;3032;49.484;11.112;2023-07-28T12:42:13;1.15;;;1.05;;
6007;SDS011;3032;49.484;11.112;2023-07-28T12:44:39;1.58;;;1.33;;
6007;SDS011;3032;49.484;11.112;2023-07-28T12:47:06;1.10;;;1.10;;
6007;SDS011;3032;49.484;11.112;2023-07-28T12:49:32;1.23;;;1.23;;
6007;SDS011;3032;49.484;11.112;2023-07-28T12:52:00;2.30;;;1.33;;
6007;SDS011;3032;49.484;11.112;2023-07-28T12:54:27;1.67;;;1.58;;
6007;SDS011;3032;49.484;11.112;2023-07-28T12:56:53;0.90;;;0.90;;
6007;SDS011;3032;49.484;11.112;2023-07-28T12:59:19;1.20;;;1.20;;
6007;SDS011;3032;49.484;11.112;2023-07-28T13:01:45;1.10;;;1.00;;
6007;SDS011;3032;49.484;11.112;2023-07-28T13:04:10;1.03;;;1.03;;
6007;SDS011;3032;49.484;11.112;2023-07-28T13:06:36;1.10;;;1.10;;
6007;SDS011;3032;49.484;11.112;2023-07-28T13:09:02;1.10;;;1.00;;
6007;SDS011;3032;49.484;11.112;2023-07-28T13:11:28;1.30;;;1.30;;
6007;SDS011;3032;49.484;11.112;2023-07-28T13:13:54;1.23;;;1.20;;
6007;SDS011;3032;49.484;11.112;2023-07-28T13:16:20;1.20;;;1.10;;
6007;SDS011;3032;49.484;11.112;2023-07-28T13:18:46;1.10;;;1.10;;
6007;SDS011;3032;49.484;11.112;2023-07-28T13:21:12;1.27;;;1.10;;
6007;SDS011;3032;49.484;11.112;2023-07-28T13:23:38;2.43;;;1.10;;
6007;SDS011;3032;49.484;11.112;2023-07-28T13:26:04;1.70;;;1.10;;
6007;SDS011;3032;49.484;11.112;2023-07-28T13:28:29;2.50;;;1.20;;
6007;SDS011;3032;49.484;11.112;2023-07-28T13:30:55;1.20;;;1.10;;
6007;SDS011;3032;49.484;11.112;2023-07-28T13:33:21;1.00;;;1.00;;
6007;SDS011;3032;49.484;11.112;2023-07-28T13:35:46;1.10;;;1.10;;
6007;SDS011;3032;49.484;11.112;2023-07-28T13:38:12;1.20;;;1.10;;
6007;SDS011;3032;49.484;11.112;2023-07-28T13:40:38;1.43;;;1.33;;
6007;SDS011;3032;49.484;11.112;2023-07-28T13:43:03;3.67;;;1.17;;
6007;SDS011;3032;49.484;11.112;2023-07-28T13:45:29;2.70;;;1.20;;
6007;SDS011;3032;49.484;11.112;2023-07-28T13:47:55;1.00;;;1.00;;
6007;SDS011;3032;49.484;11.112;2023-07-28T13:50:20;1.03;;;1.03;;
6007;SDS011;3032;49.484;11.112;2023-07-28T13:52:46;1.70;;;1.60;;
6007;SDS011;3032;49.484;11.112;2023-07-28T13:55:11;1.00;;;0.90;;
6007;SDS011;3032;49.484;11.112;2023-07-28T13:57:37;0.80;;;0.80;;
6007;SDS011;3032;49.484;11.112;2023-07-28T14:00:04;0.90;;;0.90;;
6007;SDS011;3032;49.484;11.112;2023-07-28T14:02:34;1.42;;;1.10;;
6007;SDS011;3032;49.484;11.112;2023-07-28T14:05:03;1.35;;;1.30;;
6007;SDS011;3032;49.484;11.112;2023-07-28T14:07:29;4.00;;;1.27;;
6007;SDS011;3032;49.484;11.112;2023-07-28T14:09:55;1.30;;;1.20;;
6007;SDS011;3032;49.484;11.112;2023-07-28T14:12:20;1.47;;;1.37;;
6007;SDS011;3032;49.484;11.112;2023-07-28T14:14:46;1.20;;;1.20;;
6007;SDS011;3032;49.484;11.112;2023-07-28T14:17:11;1.30;;;1.20;;
6007;SDS011;3032;49.484;11.112;2023-07-28T14:19:38;1.50;;;1.50;;
6007;SDS011;3032;49.484;11.112;2023-07-28T14:22:04;1.40;;;1.40;;
6007;SDS011;3032;49.484;11.112;2023-07-28T14:24:29;2.33;;;1.70;;
6007;SDS011;3032;49.484;11.112;2023-07-28T14:26:55;1.80;;;1.40;;
6007;SDS011;3032;49.484;11.112;2023-07-28T14:29:21;5.20;;;1.57;;
6007;SDS011;3032;49.484;11.112;2023-07-28T14:31:47;1.60;;;1.50;;
6007;SDS011;3032;49.484;11.112;2023-07-28T14:34:13;4.90;;;1.27;;
6007;SDS011;3032;49.484;11.112;2023-07-28T14:36:38;1.47;;;1.40;;
6007;SDS011;3032;49.484;11.112;2023-07-28T14:39:04;1.57;;;1.10;;
6007;SDS011;3032;49.484;11.112;2023-07-28T14:41:30;1.97;;;1.40;;
6007;SDS011;3032;49.484;11.112;2023-07-28T14:43:55;1.13;;;1.13;;
6007;SDS011;3032;49.484;11.112;2023-07-28T14:46:21;1.57;;;1.20;;
6007;SDS011;3032;49.484;11.112;2023-07-28T14:48:47;1.30;;;1.30;;
6007;SDS011;3032;49.484;11.112;2023-07-28T14:51:15;2.05;;;1.27;;
6007;SDS011;3032;49.484;11.112;2023-07-28T14:53:40;3.00;;;1.20;;
6007;SDS011;3032;49.484;11.112;2023-07-28T14:56:06;3.13;;;1.30;;
6007;SDS011;3032;49.484;11.112;2023-07-28T14:58:32;1.60;;;1.50;;
6007;SDS011;3032;49.484;11.112;2023-07-28T15:00:58;1.73;;;1.45;;
6007;SDS011;3032;49.484;11.112;2023-07-28T15:03:26;6.22;;;1.75;;
6007;SDS011;3032;49.484;11.112;2023-07-28T15:05:52;1.98;;;1.88;;
6007;SDS011;3032;49.484;11.112;2023-07-28T15:08:19;1.70;;;1.60;;
6007;SDS011;3032;49.484;11.112;2023-07-28T15:10:45;1.40;;;1.37;;